TimeEDT,TemperatureF,Dew PointF,Humidity,Sea Level PressureIn,VisibilityMPH,Wind Direction,Wind SpeedMPH,Gust SpeedMPH,PrecipitationIn,Events,Conditions,WindDirDegrees,DateUTC
12:54 AM,71.1,66.9,87,29.68,10.0,SW,5.8,-,N/A,,Clear,220,2013-06-28 04:54:00
1:08 AM,71.6,68.0,88,29.71,10.0,SSW,5.8,-,N/A,Thunderstorm,Clear,210,2013-06-28 05:08:00
1:54 AM,71.1,64.9,81,29.68,10.0,Calm,Calm,-,N/A,Thunderstorm,Overcast,0,2013-06-28 05:54:00
2:54 AM,72.0,66.9,84,29.65,10.0,WSW,5.8,-,N/A,,Clear,250,2013-06-28 06:54:00
3:54 AM,71.1,68.0,90,29.65,10.0,WSW,5.8,-,N/A,,Clear,250,2013-06-28 07:54:00
4:54 AM,71.1,66.9,87,29.62,10.0,WSW,8.1,-,N/A,,Clear,250,2013-06-28 08:54:00
5:54 AM,71.1,66.9,87,29.63,10.0,West,10.4,-,N/A,,Clear,260,2013-06-28 09:54:00
6:54 AM,71.1,66.9,87,29.62,10.0,West,9.2,-,N/A,,Clear,260,2013-06-28 10:54:00
7:54 AM,73.0,66.9,81,29.63,10.0,West,9.2,-,N/A,,Clear,270,2013-06-28 11:54:00
8:54 AM,73.9,66.0,76,29.64,10.0,West,12.7,-,N/A,,Clear,280,2013-06-28 12:54:00
9:54 AM,77.0,66.0,69,29.63,10.0,West,16.1,20.7,N/A,,Clear,280,2013-06-28 13:54:00
10:54 AM,80.1,66.0,62,29.62,10.0,West,12.7,-,N/A,,Clear,280,2013-06-28 14:54:00
11:54 AM,80.1,66.0,62,29.62,10.0,West,15.0,20.7,N/A,,Scattered Clouds,270,2013-06-28 15:54:00
12:54 PM,80.1,64.0,58,29.61,10.0,West,13.8,26.5,N/A,,Mostly Cloudy,270,2013-06-28 16:54:00
1:54 PM,84.0,60.1,44,29.59,10.0,West,17.3,26.5,N/A,,Partly Cloudy,270,2013-06-28 17:54:00
2:54 PM,82.9,60.1,46,29.58,10.0,West,16.1,23.0,N/A,,Mostly Cloudy,280,2013-06-28 18:54:00
3:54 PM,82.0,59.0,45,29.57,10.0,WNW,17.3,24.2,N/A,,Scattered Clouds,300,2013-06-28 19:54:00
4:54 PM,84.0,59.0,43,29.56,10.0,WNW,17.3,25.3,N/A,,Partly Cloudy,300,2013-06-28 20:54:00
5:54 PM,70.0,57.0,63,29.61,10.0,NNW,16.1,24.2,N/A,,Mostly Cloudy,330,2013-06-28 21:54:00
6:54 PM,66.0,61.0,84,29.62,10.0,WNW,19.6,24.2,0.00,Rain,Light Rain,290,2013-06-28 22:54:00
7:54 PM,66.9,60.1,79,29.61,10.0,West,6.9,-,0.00,,Mostly Cloudy,280,2013-06-28 23:54:00
8:54 PM,66.9,61.0,81,29.62,10.0,WSW,6.9,-,N/A,,Clear,250,2013-06-29 00:54:00
9:54 PM,66.9,61.0,81,29.60,10.0,West,8.1,-,0.00,,Scattered Clouds,270,2013-06-29 01:54:00
10:54 PM,63.0,61.0,93,29.61,10.0,Calm,Calm,-,N/A,,Clear,0,2013-06-29 02:54:00
11:54 PM,62.1,60.1,93,29.60,10.0,SW,4.6,-,N/A,,Clear,230,2013-06-29 03:54:00